sensor_id;sensor_type;location;lat;lon;timestamp;pressure;altitude;pressure_sealevel;temperature;humidity
12626;BME280;6378;42.684;23.372;2023-01-31T00:02:18;94625.03;;;1.35;100.00
12626;BME280;6378;42.684;23.372;2023-01-31T00:04:43;94626.00;;;1.39;100.00
12626;BME280;6378;42.684;23.372;2023-01-31T00:07:09;94618.56;;;1.13;100.00
12626;BME280;6378;42.684;23.372;2023-01-31T00:09:34;94613.94;;;1.05;100.00
12626;BME280;6378;42.684;23.372;2023-01-31T00:11:59;94639.06;;;1.08;100.00
12626;BME280;6378;42.684;23.372;2023-01-31T00:14:25;94629.34;;;1.03;100.00
12626;BME280;6378;42.684;23.372;2023-01-31T00:16:50;94625.63;;;1.04;100.00
12626;BME280;6378;42.684;23.372;2023-01-31T00:19:16;94619.72;;;0.94;100.00
12626;BME280;6378;42.684;23.372;2023-01-31T00:21:41;94622.19;;;1.04;100.00
12626;BME280;6378;42.684;23.372;2023-01-31T00:24:11;94618.75;;;1.03;100.00
12626;BME280;6378;42.684;23.372;2023-01-31T00:26:37;94608.94;;;1.04;100.00
12626;BME280;6378;42.684;23.372;2023-01-31T00:29:04;94620.41;;;1.13;100.00
12626;BME280;6378;42.684;23.372;2023-01-31T00:31:31;94612.28;;;1.09;100.00
12626;BME280;6378;42.684;23.372;2023-01-31T00:33:57;94609.53;;;1.14;100.00
12626;BME280;6378;42.684;23.372;2023-01-31T00:36:27;94620.72;;;1.11;100.00
12626;BME280;6378;42.684;23.372;2023-01-31T00:38:54;94545.78;;;0.56;100.00
12626;BME280;6378;42.684;23.372;2023-01-31T00:41:22;94618.09;;;0.98;100.00
12626;BME280;6378;42.684;23.372;2023-01-31T00:43:48;94585.59;;;0.92;100.00
12626;BME280;6378;42.684;23.372;2023-01-31T00:46:14;94612.09;;;1.06;100.00
12626;BME280;6378;42.684;23.372;2023-01-31T00:48:40;94612.66;;;1.03;100.00
12626;BME280;6378;42.684;23.372;2023-01-31T00:51:05;94609.16;;;1.07;100.00
12626;BME280;6378;42.684;23.372;2023-01-31T00:53:31;94593.53;;;1.06;100.00
12626;BME280;6378;42.684;23.372;2023-01-31T00:56:02;94596.97;;;1.06;100.00
12626;BME280;6378;42.684;23.372;2023-01-31T00:58:28;94583.63;;;1.11;100.00
12626;BME280;6378;42.684;23.372;2023-01-31T01:00:53;94608.72;;;1.27;100.00
12626;BME280;6378;42.684;23.372;2023-01-31T01:03:19;94609.22;;;1.29;100.00
12626;BME280;6378;42.684;23.372;2023-01-31T01:05:45;94607.97;;;1.27;100.00
12626;BME280;6378;42.684;23.372;2023-01-31T01:08:10;94616.56;;;1.33;100.00
12626;BME280;6378;42.684;23.372;2023-01-31T01:10:36;94622.38;;;1.35;100.00
12626;BME280;6378;42.684;23.372;2023-01-31T01:13:02;94632.38;;;1.38;100.00
12626;BME280;6378;42.684;23.372;2023-01-31T01:15:29;94626.78;;;1.39;100.00
12626;BME280;6378;42.684;23.372;2023-01-31T01:17:55;94608.94;;;1.17;100.00
12626;BME280;6378;42.684;23.372;2023-01-31T01:20:20;94599.41;;;1.03;100.00
12626;BME280;6378;42.684;23.372;2023-01-31T01:22:46;94598.44;;;1.12;100.00
12626;BME280;6378;42.684;23.372;2023-01-31T01:25:11;94606.28;;;1.17;100.00
12626;BME280;6378;42.684;23.372;2023-01-31T01:27:37;94590.97;;;1.14;100.00
12626;BME280;6378;42.684;23.372;2023-01-31T01:30:03;94607.06;;;1.18;100.00
12626;BME280;6378;42.684;23.372;2023-01-31T01:32:29;94598.13;;;1.27;100.00
12626;BME280;6378;42.684;23.372;2023-01-31T01:34:54;94619.81;;;1.29;100.00
12626;BME280;6378;42.684;23.372;2023-01-31T01:37:20;94599.88;;;1.32;100.00
12626;BME280;6378;42.684;23.372;2023-01-31T01:39:46;94584.38;;;1.25;100.00
12626;BME280;6378;42.684;23.372;2023-01-31T01:42:16;94599.41;;;1.30;100.00
12626;BME280;6378;42.684;23.372;2023-01-31T01:44:53;94573.00;;;1.25;100.00
12626;BME280;6378;42.684;23.372;2023-01-31T01:47:41;94586.44;;;1.28;100.00
12626;BME280;6378;42.684;23.372;2023-01-31T01:50:14;94589.41;;;1.27;100.00
12626;BME280;6378;42.684;23.372;2023-01-31T01:52:46;94584.97;;;1.36;100.00
12626;BME280;6378;42.684;23.372;2023-01-31T01:55:22;94602.06;;;1.30;100.00
12626;BME280;6378;42.684;23.372;2023-01-31T01:57:52;94600.59;;;1.24;100.00
12626;BME280;6378;42.684;23.372;2023-01-31T02:00:22;94602.44;;;1.23;100.00
12626;BME280;6378;42.684;23.372;2023-01-31T02:02:51;94595.28;;;1.24;100.00
12626;BME280;6378;42.684;23.372;2023-01-31T02:05:21;94579.47;;;1.19;100.00
12626;BME280;6378;42.684;23.372;2023-01-31T02:07:48;94586.75;;;1.27;100.00
12626;BME280;6378;42.684;23.372;2023-01-31T02:10:23;94582.53;;;1.26;100.00
12626;BME280;6378;42.684;23.372;2023-01-31T02:12:51;94577.13;;;1.17;100.00
12626;BME280;6378;42.684;23.372;2023-01-31T02:15:16;94597.13;;;1.37;100.00
12626;BME280;6378;42.684;23.372;2023-01-31T02:17:42;94593.78;;;1.45;100.00
12626;BME280;6378;42.684;23.372;2023-01-31T02:22:49;94602.41;;;1.51;100.00
12626;BME280;6378;42.684;23.372;2023-01-31T02:31:05;94595.13;;;1.56;100.00
12626;BME280;6378;42.684;23.372;2023-01-31T02:33:46;94592.66;;;1.60;100.00
12626;BME280;6378;42.684;23.372;2023-01-31T02:41:36;94577.47;;;1.38;100.00
12626;BME280;6378;42.684;23.372;2023-01-31T02:44:23;94607.59;;;1.56;100.00
12626;BME280;6378;42.684;23.372;2023-01-31T02:53:00;94608.25;;;1.61;100.00
12626;BME280;6378;42.684;23.372;2023-01-31T02:56:00;94606.22;;;1.58;100.00
12626;BME280;6378;42.684;23.372;2023-01-31T02:58:41;94626.63;;;1.58;100.00
12626;BME280;6378;42.684;23.372;2023-01-31T03:01:11;94627.94;;;1.47;100.00
12626;BME280;6378;42.684;23.372;2023-01-31T03:03:38;94635.59;;;1.48;100.00
12626;BME280;6378;42.684;23.372;2023-01-31T03:08:50;94646.72;;;1.23;100.00
12626;BME280;6378;42.684;23.372;2023-01-31T03:11:17;94653.88;;;1.22;100.00
12626;BME280;6378;42.684;23.372;2023-01-31T03:13:46;94662.44;;;1.19;100.00
12626;BME280;6378;42.684;23.372;2023-01-31T03:16:31;94663.91;;;1.25;100.00
12626;BME280;6378;42.684;23.372;2023-01-31T03:19:25;94661.84;;;1.22;100.00
12626;BME280;6378;42.684;23.372;2023-01-31T03:22:06;94674.09;;;1.18;100.00
12626;BME280;6378;42.684;23.372;2023-01-31T03:24:35;94670.56;;;1.23;100.00
12626;BME280;6378;42.684;23.372;2023-01-31T03:27:01;94664.72;;;1.12;100.00
12626;BME280;6378;42.684;23.372;2023-01-31T03:29:28;94659.97;;;1.09;100.00
12626;BME280;6378;42.684;23.372;2023-01-31T03:32:09;94674.09;;;1.18;100.00
12626;BME280;6378;42.684;23.372;2023-01-31T03:34:36;94684.13;;;1.08;100.00
12626;BME280;6378;42.684;23.372;2023-01-31T03:37:16;94686.09;;;1.02;100.00
12626;BME280;6378;42.684;23.372;2023-01-31T03:42:33;94663.47;;;0.64;100.00
12626;BME280;6378;42.684;23.372;2023-01-31T03:45:10;94706.16;;;0.76;100.00
12626;BME280;6378;42.684;23.372;2023-01-31T03:47:40;94698.41;;;0.79;100.00
12626;BME280;6378;42.684;23.372;2023-01-31T03:50:13;94659.34;;;0.58;100.00
12626;BME280;6378;42.684;23.372;2023-01-31T03:55:32;94701.16;;;0.88;100.00
12626;BME280;6378;42.684;23.372;2023-01-31T03:58:01;94695.03;;;0.93;100.00
12626;BME280;6378;42.684;23.372;2023-01-31T04:00:27;94705.13;;;1.04;100.00
12626;BME280;6378;42.684;23.372;2023-01-31T04:02:59;94674.28;;;0.81;100.00
12626;BME280;6378;42.684;23.372;2023-01-31T04:05:30;94701.22;;;1.02;100.00
12626;BME280;6378;42.684;23.372;2023-01-31T04:07:58;94699.91;;;0.99;100.00
12626;BME280;6378;42.684;23.372;2023-01-31T04:10:24;94702.56;;;1.13;100.00
12626;BME280;6378;42.684;23.372;2023-01-31T04:12:51;94682.25;;;0.95;100.00
12626;BME280;6378;42.684;23.372;2023-01-31T04:15:16;94696.78;;;1.24;100.00
12626;BME280;6378;42.684;23.372;2023-01-31T04:17:42;94708.19;;;1.39;100.00
12626;BME280;6378;42.684;23.372;2023-01-31T04:20:08;94708.19;;;1.39;100.00
12626;BME280;6378;42.684;23.372;2023-01-31T04:22:34;94705.91;;;1.32;100.00
12626;BME280;6378;42.684;23.372;2023-01-31T04:25:00;94693.75;;;1.31;100.00
12626;BME280;6378;42.684;23.372;2023-01-31T04:27:26;94685.13;;;1.25;100.00
12626;BME280;6378;42.684;23.372;2023-01-31T04:29:52;94689.53;;;1.30;100.00
12626;BME280;6378;42.684;23.372;2023-01-31T04:32:17;94700.41;;;1.28;100.00
12626;BME280;6378;42.684;23.372;2023-01-31T04:34:42;94715.53;;;1.28;100.00
12626;BME280;6378;42.684;23.372;2023-01-31T04:37:08;94716.03;;;1.30;100.00
12626;BME280;6378;42.684;23.372;2023-01-31T04:39:33;94721.06;;;1.32;100.00
12626;BME280;6378;42.684;23.372;2023-01-31T04:41:59;94719.88;;;1.24;100.00
12626;BME280;6378;42.684;23.372;2023-01-31T04:44:24;94725.06;;;1.15;100.00
12626;BME280;6378;42.684;23.372;2023-01-31T04:46:49;94741.25;;;1.27;100.00
12626;BME280;6378;42.684;23.372;2023-01-31T04:49:15;94757.25;;;1.22;100.00
12626;BME280;6378;42.684;23.372;2023-01-31T04:51:40;94728.09;;;1.09;100.00
12626;BME280;6378;42.684;23.372;2023-01-31T04:54:06;94726.31;;;1.04;100.00
12626;BME280;6378;42.684;23.372;2023-01-31T04:56:32;94744.59;;;1.06;100.00
12626;BME280;6378;42.684;23.372;2023-01-31T04:58:57;94743.19;;;1.08;100.00
12626;BME280;6378;42.684;23.372;2023-01-31T05:01:24;94745.19;;;1.16;100.00
12626;BME280;6378;42.684;23.372;2023-01-31T05:03:49;94746.66;;;1.22;100.00
12626;BME280;6378;42.684;23.372;2023-01-31T05:06:15;94736.75;;;1.14;100.00
12626;BME280;6378;42.684;23.372;2023-01-31T05:08:40;94732.50;;;1.13;100.00
12626;BME280;6378;42.684;23.372;2023-01-31T05:11:06;94715.44;;;1.06;100.00
12626;BME280;6378;42.684;23.372;2023-01-31T05:13:32;94714.47;;;1.15;100.00
12626;BME280;6378;42.684;23.372;2023-01-31T05:16:04;94736.66;;;1.19;100.00
12626;BME280;6378;42.684;23.372;2023-01-31T05:18:29;94702.56;;;0.99;100.00
12626;BME280;6378;42.684;23.372;2023-01-31T05:20:55;94734.09;;;1.14;100.00
12626;BME280;6378;42.684;23.372;2023-01-31T05:23:20;94739.31;;;1.19;100.00
12626;BME280;6378;42.684;23.372;2023-01-31T05:25:48;94732.22;;;1.15;100.00
12626;BME280;6378;42.684;23.372;2023-01-31T05:28:14;94753.53;;;1.23;100.00
12626;BME280;6378;42.684;23.372;2023-01-31T05:30:39;94752.09;;;1.31;100.00
12626;BME280;6378;42.684;23.372;2023-01-31T05:33:04;94753.34;;;1.34;100.00
12626;BME280;6378;42.684;23.372;2023-01-31T05:35:30;94756.97;;;1.38;100.00
12626;BME280;6378;42.684;23.372;2023-01-31T05:37:55;94763.56;;;1.40;100.00
12626;BME280;6378;42.684;23.372;2023-01-31T05:40:21;94738.81;;;1.31;100.00
12626;BME280;6378;42.684;23.372;2023-01-31T05:42:57;94732.84;;;1.25;100.00
12626;BME280;6378;42.684;23.372;2023-01-31T05:45:26;94758.97;;;1.46;100.00
12626;BME280;6378;42.684;23.372;2023-01-31T05:47:52;94757.75;;;1.52;100.00
12626;BME280;6378;42.684;23.372;2023-01-31T05:50:18;94754.72;;;1.58;100.00
12626;BME280;6378;42.684;23.372;2023-01-31T05:52:57;94738.13;;;1.53;100.00
12626;BME280;6378;42.684;23.372;2023-01-31T05:55:25;94738.22;;;1.48;100.00
12626;BME280;6378;42.684;23.372;2023-01-31T05:57:51;94757.75;;;1.52;100.00
12626;BME280;6378;42.684;23.372;2023-01-31T06:00:17;94750.22;;;1.59;100.00
12626;BME280;6378;42.684;23.372;2023-01-31T06:02:43;94738.03;;;1.44;100.00
12626;BME280;6378;42.684;23.372;2023-01-31T06:05:09;94740.69;;;1.44;100.00
12626;BME280;6378;42.684;23.372;2023-01-31T06:07:35;94761.31;;;1.61;100.00
12626;BME280;6378;42.684;23.372;2023-01-31T06:10:01;94765.63;;;1.57;100.00
12626;BME280;6378;42.684;23.372;2023-01-31T06:12:27;94764.97;;;1.51;100.00
12626;BME280;6378;42.684;23.372;2023-01-31T06:14:53;94767.09;;;1.63;100.00
12626;BME280;6378;42.684;23.372;2023-01-31T06:17:18;94782.22;;;1.62;100.00
12626;BME280;6378;42.684;23.372;2023-01-31T06:19:44;94786.66;;;1.67;100.00
12626;BME280;6378;42.684;23.372;2023-01-31T06:22:09;94792.19;;;1.70;100.00
12626;BME280;6378;42.684;23.372;2023-01-31T06:24:35;94784.31;;;1.65;100.00
12626;BME280;6378;42.684;23.372;2023-01-31T06:27:00;94798.53;;;1.83;100.00
12626;BME280;6378;42.684;23.372;2023-01-31T06:29:25;94795.78;;;1.88;100.00
12626;BME280;6378;42.684;23.372;2023-01-31T06:31:51;94794.91;;;1.93;100.00
12626;BME280;6378;42.684;23.372;2023-01-31T06:34:18;94760.78;;;1.86;100.00
12626;BME280;6378;42.684;23.372;2023-01-31T06:36:43;94786.81;;;2.11;100.00
12626;BME280;6378;42.684;23.372;2023-01-31T06:39:11;94801.78;;;2.07;100.00
12626;BME280;6378;42.684;23.372;2023-01-31T06:41:37;94799.00;;;2.12;100.00
12626;BME280;6378;42.684;23.372;2023-01-31T06:44:02;94798.03;;;2.08;100.00
12626;BME280;6378;42.684;23.372;2023-01-31T06:46:27;94802.16;;;2.14;100.00
12626;BME280;6378;42.684;23.372;2023-01-31T06:48:53;94800.19;;;2.06;100.00
12626;BME280;6378;42.684;23.372;2023-01-31T06:51:19;94809.13;;;2.24;100.00
12626;BME280;6378;42.684;23.372;2023-01-31T06:53:44;94813.53;;;2.29;100.00
12626;BME280;6378;42.684;23.372;2023-01-31T06:56:10;94811.38;;;2.17;100.00
12626;BME280;6378;42.684;23.372;2023-01-31T06:58:35;94813.03;;;2.27;100.00
12626;BME280;6378;42.684;23.372;2023-01-31T07:01:09;94807.16;;;2.30;100.00
12626;BME280;6378;42.684;23.372;2023-01-31T07:03:36;94818.63;;;2.39;100.00
12626;BME280;6378;42.684;23.372;2023-01-31T07:06:01;94815.50;;;2.37;100.00
12626;BME280;6378;42.684;23.372;2023-01-31T07:08:27;94816.44;;;2.41;100.00
12626;BME280;6378;42.684;23.372;2023-01-31T07:10:52;94813.13;;;2.35;100.00
12626;BME280;6378;42.684;23.372;2023-01-31T07:13:18;94815.78;;;2.35;100.00
12626;BME280;6378;42.684;23.372;2023-01-31T07:15:44;94792.69;;;2.22;100.00
12626;BME280;6378;42.684;23.372;2023-01-31T07:18:10;94797.97;;;2.36;100.00
12626;BME280;6378;42.684;23.372;2023-01-31T07:20:38;94826.84;;;2.51;100.00
12626;BME280;6378;42.684;23.372;2023-01-31T07:23:04;94822.50;;;2.55;100.00
12626;BME280;6378;42.684;23.372;2023-01-31T07:25:29;94824.69;;;2.53;100.00
12626;BME280;6378;42.684;23.372;2023-01-31T07:27:56;94809.94;;;2.47;100.00
12626;BME280;6378;42.684;23.372;2023-01-31T07:30:21;94820.06;;;2.58;100.00
12626;BME280;6378;42.684;23.372;2023-01-31T07:32:47;94824.88;;;2.56;100.00
12626;BME280;6378;42.684;23.372;2023-01-31T07:35:12;94801.31;;;2.41;100.00
12626;BME280;6378;42.684;23.372;2023-01-31T07:37:38;94812.13;;;2.45;100.00
12626;BME280;6378;42.684;23.372;2023-01-31T07:40:05;94816.63;;;2.58;100.00
12626;BME280;6378;42.684;23.372;2023-01-31T07:42:31;94813.34;;;2.61;100.00
12626;BME280;6378;42.684;23.372;2023-01-31T07:44:56;94811.88;;;2.69;100.00
12626;BME280;6378;42.684;23.372;2023-01-31T07:47:22;94824.03;;;2.83;100.00
12626;BME280;6378;42.684;23.372;2023-01-31T07:49:47;94822.63;;;2.86;100.00
12626;BME280;6378;42.684;23.372;2023-01-31T07:52:15;94829.69;;;2.68;100.00
12626;BME280;6378;42.684;23.372;2023-01-31T07:54:40;94820.91;;;2.68;100.00
12626;BME280;6378;42.684;23.372;2023-01-31T07:57:05;94825.88;;;2.83;100.00
12626;BME280;6378;42.684;23.372;2023-01-31T07:59:31;94831.78;;;2.80;100.00
12626;BME280;6378;42.684;23.372;2023-01-31T08:01:56;94824.03;;;2.83;100.00
12626;BME280;6378;42.684;23.372;2023-01-31T08:04:40;94817.81;;;2.88;100.00
12626;BME280;6378;42.684;23.372;2023-01-31T08:07:07;94815.03;;;2.93;100.00
12626;BME280;6378;42.684;23.372;2023-01-31T08:09:35;94805.53;;;2.78;100.00
12626;BME280;6378;42.684;23.372;2023-01-31T08:12:00;94810.59;;;2.88;100.00
12626;BME280;6378;42.684;23.372;2023-01-31T08:14:26;94814.69;;;2.94;100.00
12626;BME280;6378;42.684;23.372;2023-01-31T08:16:53;94794.84;;;2.92;100.00
12626;BME280;6378;42.684;23.372;2023-01-31T08:19:19;94783.00;;;2.76;100.00
12626;BME280;6378;42.684;23.372;2023-01-31T08:21:44;94807.56;;;3.03;100.00
12626;BME280;6378;42.684;23.372;2023-01-31T08:24:10;94800.56;;;2.85;100.00
12626;BME280;6378;42.684;23.372;2023-01-31T08:26:36;94804.06;;;2.94;100.00
12626;BME280;6378;42.684;23.372;2023-01-31T08:29:02;94795.38;;;3.02;100.00
12626;BME280;6378;42.684;23.372;2023-01-31T08:31:27;94813.22;;;3.33;100.00
12626;BME280;6378;42.684;23.372;2023-01-31T08:33:54;94812.31;;;3.68;100.00
12626;BME280;6378;42.684;23.372;2023-01-31T08:38:47;94813.84;;;3.61;100.00
12626;BME280;6378;42.684;23.372;2023-01-31T08:41:14;94812.56;;;3.58;100.00
12626;BME280;6378;42.684;23.372;2023-01-31T08:43:40;94811.91;;;3.53;100.00
12626;BME280;6378;42.684;23.372;2023-01-31T08:46:06;94804.38;;;3.46;100.00
12626;BME280;6378;42.684;23.372;2023-01-31T08:48:32;94807.84;;;3.46;100.00
12626;BME280;6378;42.684;23.372;2023-01-31T08:51:05;94796.97;;;3.34;100.00
12626;BME280;6378;42.684;23.372;2023-01-31T08:53:32;94767.31;;;3.19;100.00
12626;BME280;6378;42.684;23.372;2023-01-31T08:56:03;94804.78;;;3.31;100.00
12626;BME280;6378;42.684;23.372;2023-01-31T08:58:34;94809.97;;;3.36;100.00
12626;BME280;6378;42.684;23.372;2023-01-31T09:01:01;94815.19;;;3.49;100.00
12626;BME280;6378;42.684;23.372;2023-01-31T09:03:27;94813.28;;;3.41;100.00
12626;BME280;6378;42.684;23.372;2023-01-31T09:05:52;94802.19;;;3.48;100.00
12626;BME280;6378;42.684;23.372;2023-01-31T09:08:18;94813.53;;;3.62;100.00
12626;BME280;6378;42.684;23.372;2023-01-31T09:10:49;94812.31;;;3.68;100.00
12626;BME280;6378;42.684;23.372;2023-01-31T09:13:15;94807.59;;;3.65;100.00
12626;BME280;6378;42.684;23.372;2023-01-31T09:15:41;94821.84;;;3.61;100.00
12626;BME280;6378;42.684;23.372;2023-01-31T09:18:06;94813.72;;;3.66;100.00
12626;BME280;6378;42.684;23.372;2023-01-31T09:20:32;94804.47;;;3.63;100.00
12626;BME280;6378;42.684;23.372;2023-01-31T09:22:57;94786.91;;;3.62;100.00
12626;BME280;6378;42.684;23.372;2023-01-31T09:25:22;94781.38;;;3.81;100.00
12626;BME280;6378;42.684;23.372;2023-01-31T09:27:51;94792.34;;;3.97;100.00
12626;BME280;6378;42.684;23.372;2023-01-31T09:30:17;94809.53;;;4.30;100.00
12626;BME280;6378;42.684;23.372;2023-01-31T09:32:42;94783.31;;;4.06;100.00
12626;BME280;6378;42.684;23.372;2023-01-31T09:35:10;94792.56;;;4.17;100.00
12626;BME280;6378;42.684;23.372;2023-01-31T09:37:35;94781.28;;;4.20;100.00
12626;BME280;6378;42.684;23.372;2023-01-31T09:40:02;94781.78;;;4.31;100.00
12626;BME280;6378;42.684;23.372;2023-01-31T09:42:35;94781.47;;;4.24;100.00
12626;BME280;6378;42.684;23.372;2023-01-31T09:45:06;94781.34;;;4.38;100.00
12626;BME280;6378;42.684;23.372;2023-01-31T09:47:38;94783.69;;;4.39;100.00
12626;BME280;6378;42.684;23.372;2023-01-31T09:50:17;94779.56;;;4.16;100.00
12626;BME280;6378;42.684;23.372;2023-01-31T09:52:44;94793.03;;;4.11;100.00
12626;BME280;6378;42.684;23.372;2023-01-31T09:55:18;94791.34;;;4.15;100.00
12626;BME280;6378;42.684;23.372;2023-01-31T10:00:29;94772.19;;;3.96;100.00
12626;BME280;6378;42.684;23.372;2023-01-31T10:08:14;94772.94;;;3.96;100.00
12626;BME280;6378;42.684;23.372;2023-01-31T10:10:51;94777.66;;;3.99;100.00
12626;BME280;6378;42.684;23.372;2023-01-31T10:13:29;94774.53;;;4.06;100.00
12626;BME280;6378;42.684;23.372;2023-01-31T10:18:37;94758.09;;;4.12;100.00
12626;BME280;6378;42.684;23.372;2023-01-31T10:21:10;94766.78;;;4.52;100.00
12626;BME280;6378;42.684;23.372;2023-01-31T10:23:57;94776.94;;;4.50;100.00
12626;BME280;6378;42.684;23.372;2023-01-31T10:26:27;94766.28;;;4.42;100.00
12626;BME280;6378;42.684;23.372;2023-01-31T10:31:39;94752.03;;;4.63;100.00
12626;BME280;6378;42.684;23.372;2023-01-31T10:34:14;94756.88;;;4.70;100.00
12626;BME280;6378;42.684;23.372;2023-01-31T10:39:32;94746.22;;;4.70;100.00
12626;BME280;6378;42.684;23.372;2023-01-31T10:42:29;94755.66;;;4.59;100.00
12626;BME280;6378;42.684;23.372;2023-01-31T10:47:32;94735.09;;;4.25;100.00
12626;BME280;6378;42.684;23.372;2023-01-31T10:49:57;94757.50;;;4.24;100.00
12626;BME280;6378;42.684;23.372;2023-01-31T10:57:22;94747.47;;;4.29;100.00
12626;BME280;6378;42.684;23.372;2023-01-31T10:59:48;94767.41;;;4.49;100.00
12626;BME280;6378;42.684;23.372;2023-01-31T11:02:25;94763.31;;;4.43;100.00
12626;BME280;6378;42.684;23.372;2023-01-31T11:04:58;94760.97;;;4.33;100.00
12626;BME280;6378;42.684;23.372;2023-01-31T11:07:28;94765.50;;;4.32;100.00
12626;BME280;6378;42.684;23.372;2023-01-31T11:09:54;94762.63;;;4.03;100.00
12626;BME280;6378;42.684;23.372;2023-01-31T11:12:39;94756.81;;;4.01;100.00
12626;BME280;6378;42.684;23.372;2023-01-31T11:15:16;94758.94;;;3.73;100.00
12626;BME280;6378;42.684;23.372;2023-01-31T11:17:43;94736.19;;;3.59;100.00
12626;BME280;6378;42.684;23.372;2023-01-31T11:20:25;94771.34;;;3.86;100.00
12626;BME280;6378;42.684;23.372;2023-01-31T11:22:53;94749.53;;;3.67;100.00
12626;BME280;6378;42.684;23.372;2023-01-31T11:25:24;94734.59;;;3.49;100.00
12626;BME280;6378;42.684;23.372;2023-01-31T11:27:53;94754.38;;;3.65;100.00
12626;BME280;6378;42.684;23.372;2023-01-31T11:30:26;94767.59;;;3.87;100.00
12626;BME280;6378;42.684;23.372;2023-01-31T11:32:53;94771.53;;;3.90;100.00
12626;BME280;6378;42.684;23.372;2023-01-31T11:37:54;94772.13;;;3.87;100.00
12626;BME280;6378;42.684;23.372;2023-01-31T11:40:29;94764.50;;;3.94;100.00
12626;BME280;6378;42.684;23.372;2023-01-31T11:42:57;94754.44;;;3.82;100.00
12626;BME280;6378;42.684;23.372;2023-01-31T11:45:26;94742.94;;;3.56;100.00
12626;BME280;6378;42.684;23.372;2023-01-31T11:47:55;94768.91;;;3.59;100.00
12626;BME280;6378;42.684;23.372;2023-01-31T11:50:31;94756.31;;;3.42;100.00
12626;BME280;6378;42.684;23.372;2023-01-31T11:53:00;94751.09;;;3.29;100.00
12626;BME280;6378;42.684;23.372;2023-01-31T11:55:26;94764.19;;;3.17;100.00
12626;BME280;6378;42.684;23.372;2023-01-31T11:57:59;94762.13;;;3.14;100.00
12626;BME280;6378;42.684;23.372;2023-01-31T12:00:31;94761.19;;;3.18;100.00
12626;BME280;6378;42.684;23.372;2023-01-31T12:03:03;94764.34;;;3.20;100.00
12626;BME280;6378;42.684;23.372;2023-01-31T12:05:44;94737.53;;;3.08;100.00
12626;BME280;6378;42.684;23.372;2023-01-31T12:08:33;94754.53;;;3.29;100.00
12626;BME280;6378;42.684;23.372;2023-01-31T12:13:48;94747.88;;;3.10;100.00
12626;BME280;6378;42.684;23.372;2023-01-31T12:16:18;94751.34;;;3.19;100.00
12626;BME280;6378;42.684;23.372;2023-01-31T12:21:42;94753.47;;;3.30;100.00
12626;BME280;6378;42.684;23.372;2023-01-31T12:24:35;94749.88;;;3.35;100.00
12626;BME280;6378;42.684;23.372;2023-01-31T12:27:33;94759.19;;;3.55;100.00
12626;BME280;6378;42.684;23.372;2023-01-31T12:30:30;94743.19;;;3.46;100.00
12626;BME280;6378;42.684;23.372;2023-01-31T12:33:21;94760.69;;;3.38;100.00
12626;BME280;6378;42.684;23.372;2023-01-31T12:36:04;94767.41;;;3.36;100.00
12626;BME280;6378;42.684;23.372;2023-01-31T12:44:57;94764.63;;;3.41;100.00
12626;BME280;6378;42.684;23.372;2023-01-31T12:55:45;94753.91;;;3.32;100.00
12626;BME280;6378;42.684;23.372;2023-01-31T13:08:45;94769.94;;;3.10;100.00
12626;BME280;6378;42.684;23.372;2023-01-31T13:11:24;94776.53;;;3.13;100.00
12626;BME280;6378;42.684;23.372;2023-01-31T13:13:56;94781.41;;;3.19;100.00
12626;BME280;6378;42.684;23.372;2023-01-31T13:16:54;94778.44;;;3.21;100.00
12626;BME280;6378;42.684;23.372;2023-01-31T13:19:51;94784.59;;;3.30;100.00
12626;BME280;6378;42.684;23.372;2023-01-31T13:22:27;94782.91;;;3.42;100.00
12626;BME280;6378;42.684;23.372;2023-01-31T13:27:39;94781.00;;;3.34;100.00
12626;BME280;6378;42.684;23.372;2023-01-31T13:30:19;94784.59;;;3.30;100.00
12626;BME280;6378;42.684;23.372;2023-01-31T13:32:48;94787.00;;;3.18;100.00
12626;BME280;6378;42.684;23.372;2023-01-31T13:35:17;94780.06;;;3.30;100.00
12626;BME280;6378;42.684;23.372;2023-01-31T13:37:47;94786.19;;;3.39;100.00
12626;BME280;6378;42.684;23.372;2023-01-31T13:40:34;94779.88;;;3.27;100.00
12626;BME280;6378;42.684;23.372;2023-01-31T13:43:10;94789.19;;;3.16;100.00
12626;BME280;6378;42.684;23.372;2023-01-31T13:45:42;94787.00;;;3.18;100.00
12626;BME280;6378;42.684;23.372;2023-01-31T13:48:33;94794.09;;;3.22;100.00
12626;BME280;6378;42.684;23.372;2023-01-31T13:51:06;94784.94;;;3.37;100.00
12626;BME280;6378;42.684;23.372;2023-01-31T13:53:43;94784.44;;;3.35;100.00
12626;BME280;6378;42.684;23.372;2023-01-31T13:56:13;94771.91;;;3.27;100.00
12626;BME280;6378;42.684;23.372;2023-01-31T13:58:42;94787.41;;;3.33;100.00
12626;BME280;6378;42.684;23.372;2023-01-31T14:01:14;94782.44;;;3.40;100.00
12626;BME280;6378;42.684;23.372;2023-01-31T14:09:31;94793.97;;;3.27;100.00
12626;BME280;6378;42.684;23.372;2023-01-31T14:17:15;94808.88;;;3.37;100.00
12626;BME280;6378;42.684;23.372;2023-01-31T14:20:05;94809.47;;;3.34;100.00
12626;BME280;6378;42.684;23.372;2023-01-31T14:22:34;94805.56;;;3.31;100.00
12626;BME280;6378;42.684;23.372;2023-01-31T14:32:46;94787.56;;;3.06;100.00
12626;BME280;6378;42.684;23.372;2023-01-31T14:54:43;94846.84;;;3.07;100.00
12626;BME280;6378;42.684;23.372;2023-01-31T14:57:29;94825.22;;;2.99;100.00
12626;BME280;6378;42.684;23.372;2023-01-31T15:00:32;94856.59;;;3.11;100.00
12626;BME280;6378;42.684;23.372;2023-01-31T15:03:17;94856.66;;;2.97;100.00
12626;BME280;6378;42.684;23.372;2023-01-31T15:05:50;94864.69;;;3.06;100.00
12626;BME280;6378;42.684;23.372;2023-01-31T15:11:03;94862.69;;;3.12;100.00
12626;BME280;6378;42.684;23.372;2023-01-31T15:16:15;94876.22;;;3.01;100.00
12626;BME280;6378;42.684;23.372;2023-01-31T15:18:46;94842.31;;;2.85;100.00
12626;BME280;6378;42.684;23.372;2023-01-31T15:21:22;94872.81;;;2.87;100.00
12626;BME280;6378;42.684;23.372;2023-01-31T15:23:49;94853.38;;;2.78;100.00
12626;BME280;6378;42.684;23.372;2023-01-31T15:26:15;94825.56;;;2.62;100.00
12626;BME280;6378;42.684;23.372;2023-01-31T15:28:43;94880.91;;;2.82;100.00